sensor_id;sensor_type;location;lat;lon;timestamp;pressure;altitude;pressure_sealevel;temperature;humidity
13478;BME280;12598;62.382;17.344;2024-02-04T00:00:40;97498.38;;;18.41;18.98
13478;BME280;12598;62.382;17.344;2024-02-04T00:01:42;97502.09;;;18.40;19.01
13478;BME280;12598;62.382;17.344;2024-02-04T00:02:44;97477.44;;;18.38;18.87
13478;BME280;12598;62.382;17.344;2024-02-04T00:03:46;97484.88;;;18.36;18.77
13478;BME280;12598;62.382;17.344;2024-02-04T00:04:48;97496.59;;;18.35;19.13
13478;BME280;12598;62.382;17.344;2024-02-04T00:05:50;97507.31;;;18.35;18.59
13478;BME280;12598;62.382;17.344;2024-02-04T00:06:52;97494.16;;;18.33;18.88
13478;BME280;12598;62.382;17.344;2024-02-04T00:07:53;97505.09;;;18.32;18.89
13478;BME280;12598;62.382;17.344;2024-02-04T00:08:55;97514.16;;;18.31;18.96
13478;BME280;12598;62.382;17.344;2024-02-04T00:09:57;97499.38;;;18.28;19.12
13478;BME280;12598;62.382;17.344;2024-02-04T00:10:59;97508.03;;;18.24;18.96
13478;BME280;12598;62.382;17.344;2024-02-04T00:12:01;97512.94;;;18.27;18.92
13478;BME280;12598;62.382;17.344;2024-02-04T00:13:05;97516.44;;;18.27;18.94
13478;BME280;12598;62.382;17.344;2024-02-04T00:14:07;97525.53;;;18.26;19.39
13478;BME280;12598;62.382;17.344;2024-02-04T00:15:09;97508.84;;;18.24;18.92
13478;BME280;12598;62.382;17.344;2024-02-04T00:16:11;97506.63;;;18.21;18.83
13478;BME280;12598;62.382;17.344;2024-02-04T00:17:13;97503.97;;;18.21;18.96
13478;BME280;12598;62.382;17.344;2024-02-04T00:18:16;97512.78;;;18.22;18.94
13478;BME280;12598;62.382;17.344;2024-02-04T00:19:18;97518.59;;;18.19;18.92
13478;BME280;12598;62.382;17.344;2024-02-04T00:20:19;97507.91;;;18.19;19.12
13478;BME280;12598;62.382;17.344;2024-02-04T00:21:21;97530.31;;;18.18;18.90
13478;BME280;12598;62.382;17.344;2024-02-04T00:22:23;97518.00;;;18.17;19.20
13478;BME280;12598;62.382;17.344;2024-02-04T00:23:25;97516.38;;;18.16;19.03
13478;BME280;12598;62.382;17.344;2024-02-04T00:24:27;97513.09;;;18.14;18.99
13478;BME280;12598;62.382;17.344;2024-02-04T00:25:28;97508.81;;;18.13;19.43
13478;BME280;12598;62.382;17.344;2024-02-04T00:26:31;97506.22;;;18.06;19.33
13478;BME280;12598;62.382;17.344;2024-02-04T00:27:33;97507.41;;;18.10;19.01
13478;BME280;12598;62.382;17.344;2024-02-04T00:28:35;97502.28;;;18.09;19.28
13478;BME280;12598;62.382;17.344;2024-02-04T00:29:37;97518.78;;;18.06;19.40
13478;BME280;12598;62.382;17.344;2024-02-04T00:30:39;97496.34;;;18.07;19.26
13478;BME280;12598;62.382;17.344;2024-02-04T00:31:41;97510.75;;;18.06;19.44
13478;BME280;12598;62.382;17.344;2024-02-04T00:32:43;97474.38;;;18.05;19.59
13478;BME280;12598;62.382;17.344;2024-02-04T00:33:45;97506.66;;;18.03;19.88
13478;BME280;12598;62.382;17.344;2024-02-04T00:34:47;97518.63;;;18.01;19.84
13478;BME280;12598;62.382;17.344;2024-02-04T00:35:49;97522.34;;;18.00;19.76
13478;BME280;12598;62.382;17.344;2024-02-04T00:36:51;97518.84;;;17.99;19.71
13478;BME280;12598;62.382;17.344;2024-02-04T00:37:53;97530.56;;;17.98;19.89
13478;BME280;12598;62.382;17.344;2024-02-04T00:38:55;97501.03;;;17.93;19.92
13478;BME280;12598;62.382;17.344;2024-02-04T00:39:56;97514.78;;;17.97;19.62
13478;BME280;12598;62.382;17.344;2024-02-04T00:40:58;97455.38;;;17.95;19.79
13478;BME280;12598;62.382;17.344;2024-02-04T00:42:00;97505.13;;;17.96;19.71
13478;BME280;12598;62.382;17.344;2024-02-04T00:43:03;97508.72;;;17.90;19.90
13478;BME280;12598;62.382;17.344;2024-02-04T00:44:05;97510.69;;;17.94;19.67
13478;BME280;12598;62.382;17.344;2024-02-04T00:45:07;97514.41;;;17.93;20.09
13478;BME280;12598;62.382;17.344;2024-02-04T00:46:08;97494.06;;;17.92;19.90
13478;BME280;12598;62.382;17.344;2024-02-04T00:47:11;97495.94;;;17.92;20.11
13478;BME280;12598;62.382;17.344;2024-02-04T00:48:15;97492.44;;;17.91;19.96
13478;BME280;12598;62.382;17.344;2024-02-04T00:49:16;97507.88;;;17.89;19.99
13478;BME280;12598;62.382;17.344;2024-02-04T00:50:19;97508.91;;;17.88;20.23
13478;BME280;12598;62.382;17.344;2024-02-04T00:51:21;97472.84;;;17.80;20.13
13478;BME280;12598;62.382;17.344;2024-02-04T00:52:23;97502.97;;;17.86;19.99
13478;BME280;12598;62.382;17.344;2024-02-04T00:53:25;97457.88;;;17.79;20.21
13478;BME280;12598;62.382;17.344;2024-02-04T00:54:29;97491.50;;;17.86;20.00
13478;BME280;12598;62.382;17.344;2024-02-04T00:55:31;97503.19;;;17.85;20.36
13478;BME280;12598;62.382;17.344;2024-02-04T00:56:33;97474.84;;;17.84;20.53
13478;BME280;12598;62.382;17.344;2024-02-04T00:57:35;97460.63;;;17.72;20.46
13478;BME280;12598;62.382;17.344;2024-02-04T00:58:37;97460.16;;;17.75;20.56
13478;BME280;12598;62.382;17.344;2024-02-04T00:59:39;97484.94;;;17.82;20.29
13478;BME280;12598;62.382;17.344;2024-02-04T01:00:41;97498.31;;;17.82;20.01
13478;BME280;12598;62.382;17.344;2024-02-04T01:01:43;97484.66;;;17.72;20.06
13478;BME280;12598;62.382;17.344;2024-02-04T01:02:45;97495.03;;;17.80;20.49
13478;BME280;12598;62.382;17.344;2024-02-04T01:03:47;97495.03;;;17.80;20.63
13478;BME280;12598;62.382;17.344;2024-02-04T01:04:49;97498.59;;;17.74;20.28
13478;BME280;12598;62.382;17.344;2024-02-04T01:05:52;97500.63;;;17.79;20.47
13478;BME280;12598;62.382;17.344;2024-02-04T01:06:54;97513.38;;;17.77;20.28
13478;BME280;12598;62.382;17.344;2024-02-04T01:08:02;97512.94;;;17.80;20.29
13478;BME280;12598;62.382;17.344;2024-02-04T01:09:04;97511.06;;;17.80;20.10
13478;BME280;12598;62.382;17.344;2024-02-04T01:10:06;97502.47;;;17.78;20.23
13478;BME280;12598;62.382;17.344;2024-02-04T01:11:10;97486.44;;;17.78;20.33
13478;BME280;12598;62.382;17.344;2024-02-04T01:12:12;97483.16;;;17.76;20.28
13478;BME280;12598;62.382;17.344;2024-02-04T01:13:14;97510.72;;;17.77;20.58
13478;BME280;12598;62.382;17.344;2024-02-04T01:14:16;97509.88;;;17.76;20.07
13478;BME280;12598;62.382;17.344;2024-02-04T01:15:18;97528.44;;;17.71;20.33
13478;BME280;12598;62.382;17.344;2024-02-04T01:16:20;97510.56;;;17.72;20.47
13478;BME280;12598;62.382;17.344;2024-02-04T01:17:22;97517.31;;;17.74;20.13
13478;BME280;12598;62.382;17.344;2024-02-04T01:18:24;97523.47;;;17.75;20.39
13478;BME280;12598;62.382;17.344;2024-02-04T01:19:26;97507.66;;;17.73;20.57
13478;BME280;12598;62.382;17.344;2024-02-04T01:20:28;97526.38;;;17.73;20.59
13478;BME280;12598;62.382;17.344;2024-02-04T01:21:29;97520.22;;;17.73;20.55
13478;BME280;12598;62.382;17.344;2024-02-04T01:22:31;97526.38;;;17.73;20.40
13478;BME280;12598;62.382;17.344;2024-02-04T01:23:33;97519.38;;;17.72;20.40
13478;BME280;12598;62.382;17.344;2024-02-04T01:24:35;97512.41;;;17.71;20.24
13478;BME280;12598;62.382;17.344;2024-02-04T01:25:37;97522.31;;;17.71;20.40
13478;BME280;12598;62.382;17.344;2024-02-04T01:26:44;97518.34;;;17.73;20.69
13478;BME280;12598;62.382;17.344;2024-02-04T01:27:46;97535.41;;;17.72;20.41
13478;BME280;12598;62.382;17.344;2024-02-04T01:28:48;97536.47;;;17.71;20.47
13478;BME280;12598;62.382;17.344;2024-02-04T01:29:49;97532.16;;;17.70;20.43
13478;BME280;12598;62.382;17.344;2024-02-04T01:30:51;97534.81;;;17.70;20.58
13478;BME280;12598;62.382;17.344;2024-02-04T01:31:53;97551.91;;;17.69;20.70
13478;BME280;12598;62.382;17.344;2024-02-04T01:32:55;97535.88;;;17.69;20.50
13478;BME280;12598;62.382;17.344;2024-02-04T01:33:57;97543.09;;;17.69;20.51
13478;BME280;12598;62.382;17.344;2024-02-04T01:34:59;97541.22;;;17.69;20.57
13478;BME280;12598;62.382;17.344;2024-02-04T01:36:01;97544.91;;;17.68;20.45
13478;BME280;12598;62.382;17.344;2024-02-04T01:37:03;97554.81;;;17.68;20.80
13478;BME280;12598;62.382;17.344;2024-02-04T01:38:05;97550.50;;;17.67;20.79
13478;BME280;12598;62.382;17.344;2024-02-04T01:39:07;97550.72;;;17.65;20.95
13478;BME280;12598;62.382;17.344;2024-02-04T01:40:09;97544.19;;;17.61;20.90
13478;BME280;12598;62.382;17.344;2024-02-04T01:41:11;97550.13;;;17.63;20.99
13478;BME280;12598;62.382;17.344;2024-02-04T01:42:13;97558.34;;;17.62;21.18
13478;BME280;12598;62.382;17.344;2024-02-04T01:43:15;97547.66;;;17.62;21.05
13478;BME280;12598;62.382;17.344;2024-02-04T01:44:17;97566.34;;;17.62;20.58
13478;BME280;12598;62.382;17.344;2024-02-04T01:45:20;97562.06;;;17.61;20.94
13478;BME280;12598;62.382;17.344;2024-02-04T01:46:22;97563.91;;;17.60;20.66
13478;BME280;12598;62.382;17.344;2024-02-04T01:47:24;97555.91;;;17.60;20.69
13478;BME280;12598;62.382;17.344;2024-02-04T01:48:26;97570.31;;;17.59;20.91
13478;BME280;12598;62.382;17.344;2024-02-04T01:49:28;97575.03;;;17.57;21.04
13478;BME280;12598;62.382;17.344;2024-02-04T01:50:30;97560.66;;;17.58;20.76
13478;BME280;12598;62.382;17.344;2024-02-04T01:51:32;97551.31;;;17.49;20.85
13478;BME280;12598;62.382;17.344;2024-02-04T01:52:36;97565.41;;;17.56;21.04
13478;BME280;12598;62.382;17.344;2024-02-04T01:53:39;97567.03;;;17.57;20.99
13478;BME280;12598;62.382;17.344;2024-02-04T01:54:43;97572.38;;;17.57;21.01
13478;BME280;12598;62.382;17.344;2024-02-04T01:55:45;97560.84;;;17.57;21.04
13478;BME280;12598;62.382;17.344;2024-02-04T01:56:49;97573.41;;;17.56;20.74
13478;BME280;12598;62.382;17.344;2024-02-04T01:57:51;97582.91;;;17.52;21.11
13478;BME280;12598;62.382;17.344;2024-02-04T01:58:53;97561.09;;;17.55;21.13
13478;BME280;12598;62.382;17.344;2024-02-04T01:59:59;97558.44;;;17.55;21.15
13478;BME280;12598;62.382;17.344;2024-02-04T02:01:05;97553.09;;;17.55;20.77
13478;BME280;12598;62.382;17.344;2024-02-04T02:02:08;97563.19;;;17.53;21.28
13478;BME280;12598;62.382;17.344;2024-02-04T02:03:11;97550.84;;;17.52;21.02
13478;BME280;12598;62.382;17.344;2024-02-04T02:04:14;97564.22;;;17.52;20.95
13478;BME280;12598;62.382;17.344;2024-02-04T02:05:16;97569.56;;;17.52;20.94
13478;BME280;12598;62.382;17.344;2024-02-04T02:06:18;97559.06;;;17.51;20.93
13478;BME280;12598;62.382;17.344;2024-02-04T02:07:20;97563.22;;;17.47;21.04
13478;BME280;12598;62.382;17.344;2024-02-04T02:08:23;97568.97;;;17.50;21.17
13478;BME280;12598;62.382;17.344;2024-02-04T02:09:25;97558.28;;;17.50;20.84
13478;BME280;12598;62.382;17.344;2024-02-04T02:10:28;97559.16;;;17.44;21.24
13478;BME280;12598;62.382;17.344;2024-02-04T02:11:40;97563.63;;;17.50;21.32
13478;BME280;12598;62.382;17.344;2024-02-04T02:12:48;97574.91;;;17.52;21.07
13478;BME280;12598;62.382;17.344;2024-02-04T02:13:58;97588.25;;;17.52;21.05
13478;BME280;12598;62.382;17.344;2024-02-04T02:15:32;97586.53;;;17.58;20.79
13478;BME280;12598;62.382;17.344;2024-02-04T02:16:38;97581.19;;;17.58;20.70
13478;BME280;12598;62.382;17.344;2024-02-04T02:17:55;97571.78;;;17.55;21.03
13478;BME280;12598;62.382;17.344;2024-02-04T02:19:31;97604.00;;;17.60;21.01
13478;BME280;12598;62.382;17.344;2024-02-04T02:22:25;97586.91;;;17.61;20.64
13478;BME280;12598;62.382;17.344;2024-02-04T02:23:31;97591.88;;;17.58;20.79
13478;BME280;12598;62.382;17.344;2024-02-04T02:24:38;97610.41;;;17.53;20.58
13478;BME280;12598;62.382;17.344;2024-02-04T02:25:41;97599.38;;;17.49;20.89
13478;BME280;12598;62.382;17.344;2024-02-04T02:26:44;97603.53;;;17.45;21.04
13478;BME280;12598;62.382;17.344;2024-02-04T02:27:47;97608.03;;;17.45;20.99
13478;BME280;12598;62.382;17.344;2024-02-04T02:28:50;97583.44;;;17.36;20.97
13478;BME280;12598;62.382;17.344;2024-02-04T02:29:52;97591.47;;;17.36;21.16
13478;BME280;12598;62.382;17.344;2024-02-04T02:30:53;97605.66;;;17.37;21.03
13478;BME280;12598;62.382;17.344;2024-02-04T02:31:55;97601.69;;;17.39;21.18
13478;BME280;12598;62.382;17.344;2024-02-04T02:32:57;97594.72;;;17.38;20.70
13478;BME280;12598;62.382;17.344;2024-02-04T02:34:00;97581.38;;;17.38;20.81
13478;BME280;12598;62.382;17.344;2024-02-04T02:35:02;97617.13;;;17.37;20.90
13478;BME280;12598;62.382;17.344;2024-02-04T02:36:11;97600.50;;;17.35;20.82
13478;BME280;12598;62.382;17.344;2024-02-04T02:39:42;97591.03;;;17.39;20.76
13478;BME280;12598;62.382;17.344;2024-02-04T02:40:51;97595.56;;;17.39;20.98
13478;BME280;12598;62.382;17.344;2024-02-04T02:41:57;97599.72;;;17.28;20.76
13478;BME280;12598;62.382;17.344;2024-02-04T02:43:02;97626.19;;;17.36;20.89
13478;BME280;12598;62.382;17.344;2024-02-04T02:44:05;97623.50;;;17.36;20.97
13478;BME280;12598;62.382;17.344;2024-02-04T02:45:09;97611.19;;;17.35;20.84
13478;BME280;12598;62.382;17.344;2024-02-04T02:46:12;97601.59;;;17.28;21.22
13478;BME280;12598;62.382;17.344;2024-02-04T02:47:15;97633.59;;;17.34;20.87
13478;BME280;12598;62.382;17.344;2024-02-04T02:48:18;97628.47;;;17.33;21.27
13478;BME280;12598;62.382;17.344;2024-02-04T02:49:20;97634.63;;;17.33;20.99
13478;BME280;12598;62.382;17.344;2024-02-04T02:50:22;97631.31;;;17.31;21.03
13478;BME280;12598;62.382;17.344;2024-02-04T02:51:24;97638.97;;;17.28;21.14
13478;BME280;12598;62.382;17.344;2024-02-04T02:52:26;97618.66;;;17.27;21.26
13478;BME280;12598;62.382;17.344;2024-02-04T02:53:28;97608.59;;;17.22;20.98
13478;BME280;12598;62.382;17.344;2024-02-04T02:54:29;97635.09;;;17.24;20.92
13478;BME280;12598;62.382;17.344;2024-02-04T02:55:31;97600.31;;;17.06;21.13
13478;BME280;12598;62.382;17.344;2024-02-04T02:56:33;97645.94;;;17.29;21.21
13478;BME280;12598;62.382;17.344;2024-02-04T02:57:35;97640.59;;;17.29;21.26
13478;BME280;12598;62.382;17.344;2024-02-04T02:58:37;97628.94;;;17.23;21.10
13478;BME280;12598;62.382;17.344;2024-02-04T02:59:39;97665.44;;;17.29;20.95
13478;BME280;12598;62.382;17.344;2024-02-04T03:00:41;97661.97;;;17.29;20.95
13478;BME280;12598;62.382;17.344;2024-02-04T03:01:43;97664.84;;;17.27;20.96
13478;BME280;12598;62.382;17.344;2024-02-04T03:02:45;97648.06;;;17.20;21.21
13478;BME280;12598;62.382;17.344;2024-02-04T03:03:46;97664.03;;;17.27;21.07
13478;BME280;12598;62.382;17.344;2024-02-04T03:04:48;97673.88;;;17.26;21.11
13478;BME280;12598;62.382;17.344;2024-02-04T03:05:50;97665.06;;;17.26;21.19
13478;BME280;12598;62.382;17.344;2024-02-04T03:06:52;97668.53;;;17.26;21.24
13478;BME280;12598;62.382;17.344;2024-02-04T03:07:54;97661.56;;;17.25;21.15
13478;BME280;12598;62.382;17.344;2024-02-04T03:08:56;97684.56;;;17.26;21.21
13478;BME280;12598;62.382;17.344;2024-02-04T03:09:58;97670.63;;;17.24;21.33
13478;BME280;12598;62.382;17.344;2024-02-04T03:11:00;97674.75;;;17.20;21.18
13478;BME280;12598;62.382;17.344;2024-02-04T03:12:01;97683.75;;;17.26;21.21
13478;BME280;12598;62.382;17.344;2024-02-04T03:13:03;97672.25;;;17.25;21.00
13478;BME280;12598;62.382;17.344;2024-02-04T03:14:05;97698.16;;;17.25;21.23
13478;BME280;12598;62.382;17.344;2024-02-04T03:15:07;97674.91;;;17.25;20.95
13478;BME280;12598;62.382;17.344;2024-02-04T03:16:11;97666.25;;;17.05;21.50
13478;BME280;12598;62.382;17.344;2024-02-04T03:17:13;97680.25;;;17.25;21.26
13478;BME280;12598;62.382;17.344;2024-02-04T03:18:15;97678.41;;;17.26;21.16
13478;BME280;12598;62.382;17.344;2024-02-04T03:19:17;97698.94;;;17.25;21.24
13478;BME280;12598;62.382;17.344;2024-02-04T03:20:19;97681.28;;;17.24;21.32
13478;BME280;12598;62.382;17.344;2024-02-04T03:21:21;97700.81;;;17.25;20.88
13478;BME280;12598;62.382;17.344;2024-02-04T03:22:24;97693.22;;;17.22;20.96
13478;BME280;12598;62.382;17.344;2024-02-04T03:23:26;97690.13;;;17.25;20.85
13478;BME280;12598;62.382;17.344;2024-02-04T03:24:28;97703.47;;;17.25;21.26
13478;BME280;12598;62.382;17.344;2024-02-04T03:25:30;97685.03;;;17.17;20.90
13478;BME280;12598;62.382;17.344;2024-02-04T03:26:31;97698.59;;;17.15;20.92
13478;BME280;12598;62.382;17.344;2024-02-04T03:27:33;97711.69;;;17.23;20.68
13478;BME280;12598;62.382;17.344;2024-02-04T03:28:36;97700.84;;;17.18;20.97
13478;BME280;12598;62.382;17.344;2024-02-04T03:29:39;97723.22;;;17.24;21.04
13478;BME280;12598;62.382;17.344;2024-02-04T03:30:41;97694.50;;;17.13;20.78
13478;BME280;12598;62.382;17.344;2024-02-04T03:31:43;97710.88;;;17.23;20.62
13478;BME280;12598;62.382;17.344;2024-02-04T03:32:44;97704.72;;;17.22;20.83
13478;BME280;12598;62.382;17.344;2024-02-04T03:33:47;97712.13;;;17.20;20.87
13478;BME280;12598;62.382;17.344;2024-02-04T03:34:49;97719.09;;;17.21;20.57
13478;BME280;12598;62.382;17.344;2024-02-04T03:35:51;97728.94;;;17.21;20.80
13478;BME280;12598;62.382;17.344;2024-02-04T03:36:53;97712.94;;;17.21;20.54
13478;BME280;12598;62.382;17.344;2024-02-04T03:37:55;97732.88;;;17.18;20.92
13478;BME280;12598;62.382;17.344;2024-02-04T03:38:57;97706.81;;;17.14;21.00
13478;BME280;12598;62.382;17.344;2024-02-04T03:39:59;97717.91;;;17.17;20.70
13478;BME280;12598;62.382;17.344;2024-02-04T03:41:01;97718.50;;;17.19;21.03
13478;BME280;12598;62.382;17.344;2024-02-04T03:42:04;97742.53;;;17.19;21.01
13478;BME280;12598;62.382;17.344;2024-02-04T03:43:05;97716.69;;;17.13;20.85
13478;BME280;12598;62.382;17.344;2024-02-04T03:44:07;97722.19;;;17.18;21.09
13478;BME280;12598;62.382;17.344;2024-02-04T03:45:09;97712.56;;;17.17;20.82
13478;BME280;12598;62.382;17.344;2024-02-04T03:46:15;97729.59;;;17.16;21.05
13478;BME280;12598;62.382;17.344;2024-02-04T03:47:17;97697.00;;;17.08;20.88
13478;BME280;12598;62.382;17.344;2024-02-04T03:48:19;97701.03;;;17.17;20.91
13478;BME280;12598;62.382;17.344;2024-02-04T03:49:21;97737.63;;;17.16;20.48
13478;BME280;12598;62.382;17.344;2024-02-04T03:50:23;97727.97;;;17.15;20.52
13478;BME280;12598;62.382;17.344;2024-02-04T03:51:25;97711.13;;;17.15;20.87
13478;BME280;12598;62.382;17.344;2024-02-04T03:52:26;97714.63;;;17.15;20.51
13478;BME280;12598;62.382;17.344;2024-02-04T03:53:29;97706.00;;;17.13;20.56
13478;BME280;12598;62.382;17.344;2024-02-04T03:54:30;97707.66;;;17.14;20.93
13478;BME280;12598;62.382;17.344;2024-02-04T03:55:32;97732.72;;;17.13;20.64
13478;BME280;12598;62.382;17.344;2024-02-04T03:56:34;97728.19;;;17.14;20.51
13478;BME280;12598;62.382;17.344;2024-02-04T03:57:36;97730.84;;;17.14;20.62
13478;BME280;12598;62.382;17.344;2024-02-04T03:58:38;97731.88;;;17.13;20.56
13478;BME280;12598;62.382;17.344;2024-02-04T03:59:40;97745.22;;;17.13;20.56
13478;BME280;12598;62.382;17.344;2024-02-04T04:00:41;97723.06;;;17.12;20.57
13478;BME280;12598;62.382;17.344;2024-02-04T04:01:50;97736.41;;;17.12;20.58
13478;BME280;12598;62.382;17.344;2024-02-04T04:02:55;97729.81;;;17.15;20.56
13478;BME280;12598;62.382;17.344;2024-02-04T04:03:56;97715.09;;;17.06;20.66
13478;BME280;12598;62.382;17.344;2024-02-04T04:04:58;97729.03;;;17.08;20.50
13478;BME280;12598;62.382;17.344;2024-02-04T04:06:00;97736.41;;;17.12;20.49
13478;BME280;12598;62.382;17.344;2024-02-04T04:07:02;97738.03;;;17.13;20.47
13478;BME280;12598;62.382;17.344;2024-02-04T04:08:04;97733.75;;;17.12;20.77
13478;BME280;12598;62.382;17.344;2024-02-04T04:09:06;97739.09;;;17.12;20.40
13478;BME280;12598;62.382;17.344;2024-02-04T04:10:08;97744.63;;;17.11;20.69
13478;BME280;12598;62.382;17.344;2024-02-04T04:11:10;97729.03;;;17.08;20.55
13478;BME280;12598;62.382;17.344;2024-02-04T04:12:12;97752.63;;;17.11;20.77
13478;BME280;12598;62.382;17.344;2024-02-04T04:13:14;97757.16;;;17.10;20.54
13478;BME280;12598;62.382;17.344;2024-02-04T04:14:16;97752.84;;;17.09;20.62
13478;BME280;12598;62.382;17.344;2024-02-04T04:15:18;97737.66;;;17.10;20.43
13478;BME280;12598;62.382;17.344;2024-02-04T04:16:21;97752.84;;;17.09;20.74
13478;BME280;12598;62.382;17.344;2024-02-04T04:17:23;97758.19;;;17.09;20.65
13478;BME280;12598;62.382;17.344;2024-02-04T04:18:25;97754.31;;;17.05;20.32
13478;BME280;12598;62.382;17.344;2024-02-04T04:19:27;97747.72;;;17.08;20.62
13478;BME280;12598;62.382;17.344;2024-02-04T04:20:29;97758.19;;;17.09;20.66
13478;BME280;12598;62.382;17.344;2024-02-04T04:21:30;97741.34;;;17.09;20.81
13478;BME280;12598;62.382;17.344;2024-02-04T04:22:32;97748.56;;;17.08;20.48
13478;BME280;12598;62.382;17.344;2024-02-04T04:23:34;97756.56;;;17.08;20.31
13478;BME280;12598;62.382;17.344;2024-02-04T04:24:38;97751.66;;;17.05;20.35
13478;BME280;12598;62.382;17.344;2024-02-04T04:25:40;97762.69;;;17.09;20.52
13478;BME280;12598;62.382;17.344;2024-02-04T04:26:42;97773.97;;;17.11;20.55
13478;BME280;12598;62.382;17.344;2024-02-04T04:27:44;97763.53;;;17.09;20.66
13478;BME280;12598;62.382;17.344;2024-02-04T04:28:46;97749.19;;;17.04;20.68
13478;BME280;12598;62.382;17.344;2024-02-04T04:29:48;97761.91;;;17.08;20.75
13478;BME280;12598;62.382;17.344;2024-02-04T04:30:49;97779.75;;;17.08;20.71
13478;BME280;12598;62.382;17.344;2024-02-04T04:31:51;97779.97;;;17.06;20.51
13478;BME280;12598;62.382;17.344;2024-02-04T04:32:54;97793.94;;;17.08;20.47
13478;BME280;12598;62.382;17.344;2024-02-04T04:33:55;97786.94;;;17.07;20.33
13478;BME280;12598;62.382;17.344;2024-02-04T04:34:58;97777.91;;;17.08;20.37
13478;BME280;12598;62.382;17.344;2024-02-04T04:35:59;97786.94;;;17.07;20.18
13478;BME280;12598;62.382;17.344;2024-02-04T04:37:01;97800.28;;;17.07;20.36
13478;BME280;12598;62.382;17.344;2024-02-04T04:38:03;97785.31;;;17.06;20.54
13478;BME280;12598;62.382;17.344;2024-02-04T04:39:05;97783.69;;;17.05;20.54
13478;BME280;12598;62.382;17.344;2024-02-04T04:40:07;97778.34;;;17.05;20.63
13478;BME280;12598;62.382;17.344;2024-02-04T04:41:09;97786.34;;;17.05;20.37
13478;BME280;12598;62.382;17.344;2024-02-04T04:42:11;97798.06;;;17.04;20.42
13478;BME280;12598;62.382;17.344;2024-02-04T04:43:13;97797.22;;;17.04;20.25
13478;BME280;12598;62.382;17.344;2024-02-04T04:44:15;97802.38;;;17.05;20.69
13478;BME280;12598;62.382;17.344;2024-02-04T04:45:17;97791.88;;;17.04;20.74
13478;BME280;12598;62.382;17.344;2024-02-04T04:46:19;97804.44;;;17.03;20.38
13478;BME280;12598;62.382;17.344;2024-02-04T04:47:21;97803.41;;;17.04;20.70
13478;BME280;12598;62.382;17.344;2024-02-04T04:48:23;97807.09;;;17.03;20.51
13478;BME280;12598;62.382;17.344;2024-02-04T04:49:25;97806.25;;;17.03;20.57
13478;BME280;12598;62.382;17.344;2024-02-04T04:50:27;97807.09;;;17.03;20.55
13478;BME280;12598;62.382;17.344;2024-02-04T04:51:29;97814.06;;;17.04;20.80
13478;BME280;12598;62.382;17.344;2024-02-04T04:52:31;97804.44;;;17.03;20.74
13478;BME280;12598;62.382;17.344;2024-02-04T04:53:33;97810.56;;;17.04;20.66
13478;BME280;12598;62.382;17.344;2024-02-04T04:54:35;97807.91;;;17.04;20.72
13478;BME280;12598;62.382;17.344;2024-02-04T04:55:37;97807.09;;;17.03;20.42
13478;BME280;12598;62.382;17.344;2024-02-04T04:56:39;97807.09;;;17.03;20.84
13478;BME280;12598;62.382;17.344;2024-02-04T04:57:43;97806.50;;;17.01;20.70
13478;BME280;12598;62.382;17.344;2024-02-04T04:58:45;97813.47;;;17.02;20.43
13478;BME280;12598;62.382;17.344;2024-02-04T04:59:47;97817.97;;;17.02;20.67
13478;BME280;12598;62.382;17.344;2024-02-04T05:00:49;97814.06;;;17.04;20.82
13478;BME280;12598;62.382;17.344;2024-02-04T05:01:51;97826.56;;;17.04;20.61
13478;BME280;12598;62.382;17.344;2024-02-04T05:02:53;97803.59;;;16.96;20.36
13478;BME280;12598;62.382;17.344;2024-02-04T05:03:55;97826.81;;;17.02;20.56
13478;BME280;12598;62.382;17.344;2024-02-04T05:04:57;97828.84;;;17.00;20.53
13478;BME280;12598;62.382;17.344;2024-02-04T05:05:59;97822.06;;;17.04;20.71
13478;BME280;12598;62.382;17.344;2024-02-04T05:07:02;97817.78;;;17.03;20.78
13478;BME280;12598;62.382;17.344;2024-02-04T05:08:04;97826.81;;;17.02;20.62
13478;BME280;12598;62.382;17.344;2024-02-04T05:09:06;97820.44;;;17.03;20.43
13478;BME280;12598;62.382;17.344;2024-02-04T05:10:08;97819.59;;;17.03;20.62
13478;BME280;12598;62.382;17.344;2024-02-04T05:11:10;97816.13;;;17.02;20.52
13478;BME280;12598;62.382;17.344;2024-02-04T05:12:12;97833.78;;;17.03;20.54
13478;BME280;12598;62.382;17.344;2024-02-04T05:13:14;97813.47;;;17.02;20.87
13478;BME280;12598;62.382;17.344;2024-02-04T05:14:16;97820.44;;;17.03;20.80
13478;BME280;12598;62.382;17.344;2024-02-04T05:15:17;97822.50;;;17.01;20.60
13478;BME280;12598;62.382;17.344;2024-02-04T05:16:19;97826.81;;;17.02;20.87
13478;BME280;12598;62.382;17.344;2024-02-04T05:17:21;97824.34;;;17.01;20.48
13478;BME280;12598;62.382;17.344;2024-02-04T05:18:23;97825.16;;;17.01;20.96
13478;BME280;12598;62.382;17.344;2024-02-04T05:19:28;97831.13;;;17.03;20.75
13478;BME280;12598;62.382;17.344;2024-02-04T05:20:30;97826.81;;;17.02;20.57
13478;BME280;12598;62.382;17.344;2024-02-04T05:21:32;97834.81;;;17.02;20.58
13478;BME280;12598;62.382;17.344;2024-02-04T05:22:34;97836.66;;;17.02;20.56
13478;BME280;12598;62.382;17.344;2024-02-04T05:23:37;97840.16;;;17.02;20.78
13478;BME280;12598;62.382;17.344;2024-02-04T05:24:39;97846.53;;;17.01;20.56
13478;BME280;12598;62.382;17.344;2024-02-04T05:25:40;97841.19;;;17.01;20.56
13478;BME280;12598;62.382;17.344;2024-02-04T05:26:42;97836.66;;;17.02;20.83
13478;BME280;12598;62.382;17.344;2024-02-04T05:27:44;97853.69;;;17.01;20.92
13478;BME280;12598;62.382;17.344;2024-02-04T05:28:46;97837.47;;;17.02;20.54
13478;BME280;12598;62.382;17.344;2024-02-04T05:29:47;97846.53;;;17.01;20.82
13478;BME280;12598;62.382;17.344;2024-02-04T05:30:49;97828.63;;;17.02;20.61
13478;BME280;12598;62.382;17.344;2024-02-04T05:31:51;97835.84;;;17.01;20.85